createdAt,value
2019-04-10T00:01:36.057Z,27.33
2019-04-10T00:04:03.766Z,25.80
2019-04-10T00:06:31.985Z,27.10
2019-04-10T00:09:00.873Z,24.97
2019-04-10T00:11:29.191Z,26.13
2019-04-10T00:13:56.944Z,25.33
2019-04-10T00:16:24.728Z,25.00
2019-04-10T00:18:52.461Z,24.07
2019-04-10T00:21:20.982Z,25.67
2019-04-10T00:23:49.227Z,24.03
2019-04-10T00:26:17.403Z,23.93
2019-04-10T00:28:45.612Z,23.83
2019-04-10T00:31:13.781Z,23.47
2019-04-10T00:33:41.669Z,23.10
2019-04-10T00:36:12.147Z,23.30
2019-04-10T00:38:40.093Z,23.13
2019-04-10T00:41:08.061Z,21.93
2019-04-10T00:43:35.803Z,22.10
2019-04-10T00:46:04.062Z,23.10
2019-04-10T00:48:32.203Z,21.70
2019-04-10T00:51:01.207Z,22.17
2019-04-10T00:53:29.516Z,22.70
2019-04-10T00:55:57.415Z,22.57
2019-04-10T00:58:25.920Z,21.87
2019-04-10T01:00:54.826Z,21.83
2019-04-10T01:03:42.501Z,21.40
2019-04-10T01:06:11.490Z,20.23
2019-04-10T01:08:40.531Z,19.87
2019-04-10T01:11:13.634Z,19.53
2019-04-10T01:13:41.353Z,20.23
2019-04-10T01:16:09.250Z,20.17
2019-04-10T01:18:37.387Z,18.53
2019-04-10T01:21:06.183Z,19.77
2019-04-10T01:23:35.045Z,19.03
2019-04-10T01:26:03.084Z,18.23
2019-04-10T01:28:31.093Z,17.77
2019-04-10T01:30:59.199Z,17.57
2019-04-10T01:33:26.921Z,18.47
2019-04-10T01:35:54.814Z,17.30
2019-04-10T01:38:22.570Z,17.73
2019-04-10T01:40:51.165Z,18.00
2019-04-10T01:43:20.010Z,18.77
2019-04-10T01:45:48.017Z,16.93
2019-04-10T01:48:15.720Z,16.57
2019-04-10T01:50:44.438Z,17.67
2019-04-10T01:53:13.365Z,17.83
2019-04-10T01:55:42.936Z,17.17
2019-04-10T01:58:17.132Z,15.83
2019-04-10T02:00:50.752Z,16.73
2019-04-10T02:03:18.500Z,16.40
2019-04-10T02:05:47.107Z,17.00
2019-04-10T02:08:17.194Z,15.63
2019-04-10T02:10:44.713Z,17.30
2019-04-10T02:13:12.446Z,16.77
2019-04-10T02:15:40.243Z,16.27
2019-04-10T02:18:08.873Z,16.00
2019-04-10T02:20:47.350Z,16.37
2019-04-10T02:23:16.240Z,17.07
2019-04-10T02:25:45.087Z,16.40
2019-04-10T02:28:33.335Z,15.90
2019-04-10T02:31:02.856Z,16.63
2019-04-10T02:33:31.459Z,14.40
2019-04-10T02:35:59.355Z,14.17
2019-04-10T02:38:47.796Z,16.20
2019-04-10T02:40:57.529Z,14.90
2019-04-10T02:43:27.219Z,14.90
2019-04-10T02:45:55.722Z,15.23
2019-04-10T02:48:23.694Z,15.70
2019-04-10T02:50:51.437Z,14.67
2019-04-10T02:53:19.655Z,14.83
2019-04-10T02:55:49.350Z,15.53
2019-04-10T02:58:18.705Z,15.17
2019-04-10T03:00:48.815Z,14.40
2019-04-10T03:03:18.004Z,14.73
2019-04-10T03:05:46.646Z,14.80
2019-04-10T03:08:15.827Z,14.53
2019-04-10T03:10:50.588Z,14.77
2019-04-10T03:13:14.336Z,15.30
2019-04-10T03:15:43.399Z,14.60
2019-04-10T03:18:12.607Z,14.63
2019-04-10T03:20:40.842Z,14.40
2019-04-10T03:23:09.360Z,14.17
2019-04-10T03:25:39.238Z,14.23
2019-04-10T03:28:07.193Z,14.93
2019-04-10T03:30:36.928Z,13.63
2019-04-10T03:33:30.439Z,14.60
2019-04-10T03:35:57.033Z,13.83
2019-04-10T03:38:25.788Z,14.33
2019-04-10T03:40:54.096Z,14.80
2019-04-10T03:43:22.727Z,15.17
2019-04-10T03:45:50.820Z,14.90
2019-04-10T03:48:18.568Z,14.30
2019-04-10T03:50:52.186Z,14.33
2019-04-10T03:53:22.148Z,14.87
2019-04-10T03:55:51.110Z,14.83
2019-04-10T03:58:19.763Z,14.57
2019-04-10T04:00:58.551Z,14.20
2019-04-10T04:03:26.806Z,14.13
2019-04-10T04:05:55.137Z,14.03
2019-04-10T04:08:23.563Z,15.23
2019-04-10T04:10:51.658Z,14.43
2019-04-10T04:13:19.591Z,14.23
2019-04-10T04:15:48.372Z,14.60
2019-04-10T04:18:17.195Z,15.07
2019-04-10T04:20:45.390Z,14.03
2019-04-10T04:23:13.776Z,14.20
2019-04-10T04:25:42.781Z,14.40
2019-04-10T04:28:11.317Z,14.47
2019-04-10T04:30:40.424Z,14.53
2019-04-10T04:33:08.862Z,13.73
2019-04-10T04:35:37.019Z,14.67
2019-04-10T04:38:05.304Z,14.57
2019-04-10T04:40:33.995Z,13.97
2019-04-10T04:43:01.763Z,13.30
2019-04-10T04:45:29.991Z,13.83
2019-04-10T04:47:59.798Z,14.70
2019-04-10T04:50:27.893Z,12.63
2019-04-10T04:52:55.653Z,13.13
2019-04-10T04:55:23.475Z,13.23
2019-04-10T04:57:51.411Z,13.50
2019-04-10T05:00:19.398Z,12.57
2019-04-10T05:02:47.158Z,13.47
2019-04-10T05:05:17.202Z,12.53
2019-04-10T05:07:54.762Z,13.80
2019-04-10T05:10:15.514Z,12.77
2019-04-10T05:12:43.692Z,13.13
2019-04-10T05:15:11.620Z,12.57
2019-04-10T05:17:59.702Z,13.03
2019-04-10T05:20:39.474Z,13.97
2019-04-10T05:22:57.680Z,10.97
2019-04-10T05:25:25.468Z,12.10
2019-04-10T05:27:53.264Z,10.90
2019-04-10T05:30:21.240Z,11.20
2019-04-10T05:32:49.359Z,11.43
2019-04-10T05:35:17.293Z,11.53
2019-04-10T05:37:48.527Z,11.37
2019-04-10T05:40:17.465Z,11.60
2019-04-10T05:42:45.258Z,11.53
2019-04-10T05:45:13.024Z,10.37
2019-04-10T05:47:40.839Z,10.47
2019-04-10T05:50:28.102Z,10.37
2019-04-10T05:52:56.133Z,10.43
2019-04-10T05:55:24.609Z,10.47
2019-04-10T05:57:53.166Z,10.63
2019-04-10T06:00:22.982Z,10.17
2019-04-10T06:02:50.800Z,9.77
2019-04-10T06:05:18.602Z,10.27
2019-04-10T06:07:47.337Z,10.57
2019-04-10T06:10:15.529Z,9.97
2019-04-10T06:12:44.679Z,9.33
2019-04-10T06:15:12.913Z,10.27
2019-04-10T06:17:40.768Z,9.87
2019-04-10T06:20:09.251Z,9.33
2019-04-10T06:22:37.091Z,9.77
2019-04-10T06:25:08.618Z,10.07
2019-04-10T06:27:36.739Z,9.53
2019-04-10T06:30:07.773Z,10.00
2019-04-10T06:32:35.737Z,10.10
2019-04-10T06:35:04.213Z,10.10
2019-04-10T06:37:32.551Z,10.10
2019-04-10T06:40:10.689Z,10.87
2019-04-10T06:42:31.483Z,10.93
2019-04-10T06:45:00.649Z,10.67
2019-04-10T06:47:28.673Z,9.83
2019-04-10T06:49:56.951Z,10.07
2019-04-10T06:52:25.077Z,10.03
2019-04-10T06:54:54.107Z,10.07
2019-04-10T06:57:22.951Z,10.07
2019-04-10T06:59:50.790Z,9.60
2019-04-10T07:02:25.541Z,8.80
2019-04-10T07:04:53.108Z,9.67
2019-04-10T07:07:20.285Z,9.03
2019-04-10T07:09:49.509Z,8.60
2019-04-10T07:12:18.498Z,9.47
2019-04-10T07:14:49.326Z,10.00
2019-04-10T07:17:16.149Z,10.00
2019-04-10T07:19:45.694Z,9.47
2019-04-10T07:22:14.715Z,9.80
2019-04-10T07:24:44.072Z,10.57
2019-04-10T07:27:12.030Z,9.73
2019-04-10T07:29:40.422Z,9.10
2019-04-10T07:32:10.628Z,9.80
2019-04-10T07:34:38.339Z,9.30
2019-04-10T07:37:06.139Z,9.77
2019-04-10T07:39:35.051Z,9.53
2019-04-10T07:42:04.070Z,8.93
2019-04-10T07:44:31.891Z,9.60
2019-04-10T07:47:00.809Z,10.30
2019-04-10T07:49:31.175Z,9.27
2019-04-10T07:51:58.679Z,9.00
2019-04-10T07:54:26.785Z,9.63
2019-04-10T07:56:55.687Z,8.73
2019-04-10T07:59:23.533Z,8.73
2019-04-10T08:01:51.754Z,8.47
2019-04-10T08:04:20.532Z,9.03
2019-04-10T08:06:48.589Z,8.60
2019-04-10T08:09:16.730Z,8.57
2019-04-10T08:11:44.877Z,9.30
2019-04-10T08:14:13.147Z,9.73
2019-04-10T08:16:41.441Z,8.73
2019-04-10T08:19:10.388Z,9.30
2019-04-10T08:21:49.136Z,9.30
2019-04-10T08:24:18.158Z,8.97
2019-04-10T08:26:47.137Z,8.63
2019-04-10T08:29:16.202Z,8.57
2019-04-10T08:31:44.314Z,9.00
2019-04-10T08:34:12.203Z,9.67
2019-04-10T08:36:40.023Z,9.30
2019-04-10T08:39:07.995Z,8.93
2019-04-10T08:41:35.799Z,10.67
2019-04-10T08:44:04.422Z,9.53
2019-04-10T08:46:33.559Z,8.83
2019-04-10T08:49:01.575Z,8.60
2019-04-10T08:51:29.315Z,8.70
2019-04-10T08:53:57.107Z,9.70
2019-04-10T08:56:24.940Z,9.63
2019-04-10T08:58:52.790Z,8.93
2019-04-10T09:01:20.915Z,9.70
2019-04-10T09:03:48.967Z,9.87
2019-04-10T09:06:17.536Z,9.93
2019-04-10T09:08:45.449Z,9.83
2019-04-10T09:11:13.233Z,10.07
2019-04-10T09:14:01.060Z,10.10
2019-04-10T09:16:28.892Z,9.67
2019-04-10T09:18:57.679Z,9.77
2019-04-10T09:21:26.558Z,10.20
2019-04-10T09:23:57.667Z,9.70
2019-04-10T09:26:26.517Z,10.67
2019-04-10T09:28:54.910Z,10.27
2019-04-10T09:31:27.753Z,10.10
2019-04-10T09:33:55.799Z,11.00
2019-04-10T09:36:23.576Z,10.97
2019-04-10T09:38:51.384Z,10.97
2019-04-10T09:41:19.511Z,9.50
2019-04-10T09:43:47.683Z,11.23
2019-04-10T09:46:16.173Z,10.10
2019-04-10T09:48:44.335Z,10.20
2019-04-10T09:51:13.106Z,10.93
2019-04-10T09:53:41.940Z,10.13
2019-04-10T09:56:09.716Z,9.37
2019-04-10T09:58:37.460Z,9.53
2019-04-10T10:01:09.020Z,9.87
2019-04-10T10:03:36.825Z,9.80
2019-04-10T10:06:04.579Z,9.40
2019-04-10T10:08:32.374Z,9.30
2019-04-10T10:11:00.096Z,10.10
2019-04-10T10:13:27.906Z,9.95
2019-04-10T10:15:56.680Z,10.23
2019-04-10T10:18:25.610Z,9.80
2019-04-10T10:20:54.291Z,10.08
2019-04-10T10:23:22.118Z,10.45
2019-04-10T10:25:49.943Z,10.58
2019-04-10T10:28:18.759Z,9.88
2019-04-10T10:30:47.380Z,9.45
2019-04-10T10:33:15.738Z,9.85
2019-04-10T10:35:43.509Z,9.38
2019-04-10T10:38:11.287Z,9.73
2019-04-10T10:40:39.397Z,9.85
2019-04-10T10:43:07.879Z,10.08
2019-04-10T10:45:36.653Z,10.20
2019-04-10T10:48:08.215Z,10.63
2019-04-10T10:50:34.355Z,9.90
2019-04-10T10:53:02.083Z,10.43
2019-04-10T10:55:29.905Z,9.70
2019-04-10T10:57:57.676Z,10.98
2019-04-10T11:00:25.536Z,9.55
2019-04-10T11:02:53.997Z,10.65
2019-04-10T11:05:23.102Z,10.78
2019-04-10T11:07:51.517Z,10.23
2019-04-10T11:10:23.677Z,11.30
2019-04-10T11:12:50.755Z,10.58
2019-04-10T11:15:18.818Z,11.78
2019-04-10T11:17:46.634Z,11.97
2019-04-10T11:20:19.959Z,10.95
2019-04-10T11:22:47.832Z,10.93
2019-04-10T11:25:15.749Z,10.75
2019-04-10T11:27:43.538Z,11.80
2019-04-10T11:30:12.529Z,11.95
2019-04-10T11:32:42.168Z,10.75
2019-04-10T11:35:11.269Z,11.38
2019-04-10T11:40:09.561Z,11.60
2019-04-10T11:42:37.896Z,11.50
2019-04-10T11:45:10.243Z,11.68
2019-04-10T11:47:38.864Z,11.65
2019-04-10T11:50:13.091Z,12.00
2019-04-10T11:52:44.530Z,12.47
2019-04-10T11:55:13.908Z,12.73
2019-04-10T11:57:42.122Z,12.73
2019-04-10T12:00:23.905Z,12.35
2019-04-10T12:02:53.524Z,12.82
2019-04-10T12:05:25.237Z,13.68
2019-04-10T12:08:18.148Z,13.38
2019-04-10T12:12:55.733Z,13.80
2019-04-10T12:15:23.937Z,13.93
2019-04-10T12:17:52.051Z,13.68
2019-04-10T12:20:20.864Z,14.05
2019-04-10T12:22:49.015Z,14.60
2019-04-10T12:25:16.824Z,14.05
2019-04-10T12:27:45.305Z,15.70
2019-04-10T12:30:15.180Z,14.20
2019-04-10T12:32:43.259Z,15.55
2019-04-10T12:35:11.157Z,15.18
2019-04-10T12:37:39.223Z,16.10
2019-04-10T12:40:09.847Z,15.72
2019-04-10T12:42:38.719Z,16.17
2019-04-10T12:45:08.257Z,16.25
2019-04-10T12:47:36.197Z,15.38
2019-04-10T12:50:05.803Z,15.18
2019-04-10T12:52:34.566Z,15.57
2019-04-10T12:55:02.379Z,15.83
2019-04-10T12:57:30.729Z,15.47
2019-04-10T13:00:01.197Z,15.87
2019-04-10T13:02:28.481Z,15.73
2019-04-10T13:04:56.621Z,15.37
2019-04-10T13:07:24.810Z,16.30
2019-04-10T13:09:52.659Z,15.83
2019-04-10T13:12:20.876Z,16.20
2019-04-10T13:14:49.042Z,15.80
2019-04-10T13:17:19.998Z,16.37
2019-04-10T13:19:47.657Z,16.53
2019-04-10T13:22:15.896Z,15.67
2019-04-10T13:24:43.859Z,15.90
2019-04-10T13:27:12.579Z,15.57
2019-04-10T13:29:42.604Z,15.37
2019-04-10T13:32:34.649Z,15.60
2019-04-10T13:35:03.940Z,15.20
2019-04-10T13:37:41.422Z,15.87
2019-04-10T13:40:15.229Z,14.93
2019-04-10T13:42:43.240Z,14.53
2019-04-10T13:45:13.147Z,15.03
2019-04-10T13:47:41.224Z,16.53
2019-04-10T13:50:12.753Z,15.67
2019-04-10T13:52:51.065Z,15.40
2019-04-10T13:56:04.397Z,15.67
2019-04-10T13:58:46.731Z,15.57
2019-04-10T14:01:35.710Z,14.67
2019-04-10T14:04:04.933Z,15.07
2019-04-10T14:06:33.920Z,15.73
2019-04-10T14:09:17.523Z,15.37
2019-04-10T14:11:31.910Z,14.87
2019-04-10T14:14:00.228Z,14.90
2019-04-10T14:16:28.711Z,15.67
2019-04-10T14:18:57.118Z,14.30
2019-04-10T14:21:25.179Z,14.03
2019-04-10T14:23:53.619Z,14.23
2019-04-10T14:26:42.104Z,14.40
2019-04-10T14:29:05.868Z,14.30
2019-04-10T14:31:37.737Z,14.30
2019-04-10T14:34:06.607Z,14.67
2019-04-10T14:36:40.260Z,14.73
2019-04-10T14:39:18.397Z,14.70
2019-04-10T14:41:44.209Z,15.97
2019-04-10T14:44:12.422Z,14.70
2019-04-10T14:46:40.431Z,14.97
2019-04-10T14:49:09.004Z,14.33
2019-04-10T14:51:36.932Z,13.83
2019-04-10T14:54:05.787Z,13.87
2019-04-10T14:56:34.504Z,14.33
2019-04-10T14:59:02.326Z,13.60
2019-04-10T15:01:30.331Z,13.90
2019-04-10T15:03:58.130Z,12.93
2019-04-10T15:06:25.934Z,12.27
2019-04-10T15:08:57.737Z,12.93
2019-04-10T15:11:26.688Z,12.20
2019-04-10T15:13:55.075Z,13.23
2019-04-10T15:16:23.163Z,12.53
2019-04-10T15:18:52.002Z,12.73
2019-04-10T15:21:20.823Z,12.60
2019-04-10T15:23:48.923Z,13.70
2019-04-10T15:26:16.747Z,13.50
2019-04-10T15:28:44.575Z,13.30
2019-04-10T15:31:12.423Z,13.07
2019-04-10T15:33:40.386Z,14.00
2019-04-10T15:36:09.369Z,14.10
2019-04-10T15:38:37.962Z,13.33
2019-04-10T15:41:10.907Z,12.93
2019-04-10T15:43:39.275Z,12.50
2019-04-10T15:46:07.116Z,12.57
2019-04-10T15:48:35.634Z,13.13
2019-04-10T15:51:03.934Z,13.33
2019-04-10T15:53:32.255Z,13.97
2019-04-10T15:56:01.237Z,13.60
2019-04-10T15:58:29.267Z,14.40
2019-04-10T16:00:57.781Z,13.53
2019-04-10T16:03:26.189Z,12.57
2019-04-10T16:05:55.984Z,12.07
2019-04-10T16:08:24.326Z,12.50
2019-04-10T16:11:14.885Z,12.13
2019-04-10T16:13:44.969Z,11.47
2019-04-10T16:16:48.664Z,12.17
2019-04-10T16:19:49.180Z,11.30
2019-04-10T16:22:38.488Z,11.07
2019-04-10T16:25:16.037Z,10.33
2019-04-10T16:27:43.871Z,10.63
2019-04-10T16:30:28.039Z,9.93
2019-04-10T16:32:55.885Z,9.40
2019-04-10T16:35:24.197Z,9.73
2019-04-10T16:37:52.071Z,9.07
2019-04-10T16:40:20.694Z,9.20
2019-04-10T16:42:49.188Z,9.53
2019-04-10T16:45:17.658Z,9.00
2019-04-10T16:47:46.275Z,8.37
2019-04-10T16:50:14.638Z,9.70
2019-04-10T16:52:43.158Z,7.70
2019-04-10T16:55:11.504Z,7.40
2019-04-10T16:57:39.890Z,8.07
2019-04-10T17:00:08.401Z,7.80
2019-04-10T17:02:36.269Z,8.57
2019-04-10T17:05:06.019Z,7.30
2019-04-10T17:07:34.862Z,9.70
2019-04-10T17:10:14.012Z,11.47
2019-04-10T17:12:38.214Z,9.17
2019-04-10T17:15:08.125Z,7.60
2019-04-10T17:17:36.694Z,7.37
2019-04-10T17:20:06.900Z,7.43
2019-04-10T17:22:42.301Z,7.30
2019-04-10T17:25:06.315Z,6.83
2019-04-10T17:27:35.286Z,6.80
2019-04-10T17:30:09.534Z,6.53
2019-04-10T17:32:40.464Z,6.57
2019-04-10T17:35:09.640Z,6.30
2019-04-10T17:37:38.073Z,6.23
2019-04-10T17:40:08.535Z,6.73
2019-04-10T17:42:37.725Z,6.10
2019-04-10T17:45:07.356Z,6.27
2019-04-10T17:47:35.184Z,6.30
2019-04-10T17:50:05.703Z,6.47
2019-04-10T17:52:35.950Z,5.90
2019-04-10T17:55:04.116Z,5.97
2019-04-10T17:57:38.364Z,5.50
2019-04-10T18:00:03.011Z,5.20
2019-04-10T18:02:31.204Z,5.67
2019-04-10T18:04:59.110Z,5.57
2019-04-10T18:07:27.873Z,5.60
2019-04-10T18:10:02.383Z,6.37
2019-04-10T18:12:30.446Z,5.70
2019-04-10T18:14:59.683Z,5.20
2019-04-10T18:17:29.046Z,6.20
2019-04-10T18:19:56.978Z,6.30
2019-04-10T18:22:24.784Z,5.13
2019-04-10T18:24:55.793Z,5.10
2019-04-10T18:27:24.664Z,5.20
2019-04-10T18:29:52.497Z,5.73
2019-04-10T18:32:21.340Z,5.47
2019-04-10T18:34:50.034Z,5.60
2019-04-10T18:37:22.051Z,5.60
2019-04-10T18:39:48.626Z,5.90
2019-04-10T18:42:17.310Z,5.50
2019-04-10T18:44:45.240Z,4.83
2019-04-10T18:47:13.198Z,5.20
2019-04-10T18:49:41.007Z,5.03
2019-04-10T18:52:08.833Z,7.53
2019-04-10T18:54:36.671Z,5.93
2019-04-10T18:57:05.396Z,5.60
2019-04-10T18:59:45.307Z,5.10
2019-04-10T19:02:30.366Z,5.43
2019-04-10T19:05:12.095Z,5.50
2019-04-10T19:07:40.633Z,5.40
2019-04-10T19:10:08.922Z,5.90
2019-04-10T19:12:36.985Z,5.40
2019-04-10T19:15:06.451Z,5.47
2019-04-10T19:17:35.116Z,5.47
2019-04-10T19:20:04.153Z,4.83
2019-04-10T19:22:32.475Z,7.50
2019-04-10T19:25:00.700Z,8.10
2019-04-10T19:27:28.657Z,5.13
2019-04-10T19:29:57.026Z,5.40
2019-04-10T19:32:33.460Z,4.97
2019-04-10T19:35:02.691Z,5.40
2019-04-10T19:37:31.078Z,5.93
2019-04-10T19:39:59.158Z,5.63
2019-04-10T19:42:27.145Z,5.80
2019-04-10T19:44:55.283Z,4.30
2019-04-10T19:47:23.144Z,5.90
2019-04-10T19:49:50.985Z,5.73
2019-04-10T19:52:18.847Z,6.00
2019-04-10T19:54:47.231Z,5.47
2019-04-10T19:57:15.406Z,5.30
2019-04-10T19:59:44.041Z,5.77
2019-04-10T20:02:12.850Z,4.97
2019-04-10T20:04:40.979Z,5.27
2019-04-10T20:07:09.097Z,5.57
2019-04-10T20:09:37.338Z,5.47
2019-04-10T20:12:05.155Z,5.13
2019-04-10T20:14:34.655Z,5.43
2019-04-10T20:17:03.860Z,6.47
2019-04-10T20:19:32.778Z,5.73
2019-04-10T20:22:01.344Z,5.30
2019-04-10T20:24:29.270Z,5.83
2019-04-10T20:26:57.318Z,5.87
2019-04-10T20:29:25.179Z,5.80
2019-04-10T20:31:55.287Z,5.70
2019-04-10T20:34:23.343Z,6.10
2019-04-10T20:36:51.208Z,5.63
2019-04-10T20:39:19.113Z,6.03
2019-04-10T20:41:53.271Z,6.43
2019-04-10T20:44:17.297Z,6.17
2019-04-10T20:46:45.071Z,6.03
2019-04-10T20:49:12.816Z,5.63
2019-04-10T20:51:41.910Z,6.20
2019-04-10T20:54:10.651Z,6.30
2019-04-10T20:56:38.981Z,6.33
2019-04-10T20:59:07.721Z,5.77
2019-04-10T21:01:37.174Z,6.00
2019-04-10T21:04:05.337Z,6.63
2019-04-10T21:06:33.839Z,5.93
2019-04-10T21:09:05.318Z,6.83
2019-04-10T21:11:38.392Z,7.10
2019-04-10T21:14:07.215Z,6.10
2019-04-10T21:16:35.755Z,6.60
2019-04-10T21:19:04.535Z,5.90
2019-04-10T21:21:32.898Z,6.17
2019-04-10T21:24:00.940Z,6.20
2019-04-10T21:26:28.955Z,6.30
2019-04-10T21:28:56.774Z,5.77
2019-04-10T21:31:42.853Z,6.43
2019-04-10T21:34:21.947Z,6.77
2019-04-10T21:36:49.819Z,6.13
2019-04-10T21:39:17.664Z,6.30
2019-04-10T21:41:46.688Z,6.60
2019-04-10T21:44:14.634Z,6.67
2019-04-10T21:46:42.492Z,6.40
2019-04-10T21:49:11.370Z,7.00
2019-04-10T21:51:40.683Z,6.33
2019-04-10T21:54:09.865Z,6.90
2019-04-10T21:56:38.695Z,7.03
2019-04-10T21:59:06.472Z,5.97
2019-04-10T22:01:34.697Z,6.37
2019-04-10T22:04:03.305Z,6.10
2019-04-10T22:07:05.727Z,5.93
2019-04-10T22:09:43.276Z,5.80
2019-04-10T22:12:25.948Z,6.23
2019-04-10T22:14:48.070Z,5.80
2019-04-10T22:17:17.062Z,6.07
2019-04-10T22:19:45.215Z,5.93
2019-04-10T22:22:13.094Z,6.73
2019-04-10T22:24:40.770Z,6.47
2019-04-10T22:27:09.289Z,6.47
2019-04-10T22:29:36.958Z,6.30
2019-04-10T22:32:04.749Z,6.33
2019-04-10T22:34:32.444Z,5.30
2019-04-10T22:37:00.262Z,5.40
2019-04-10T22:39:27.990Z,5.57
2019-04-10T22:41:56.885Z,5.43
2019-04-10T22:44:35.882Z,4.77
2019-04-10T22:46:54.502Z,5.57
2019-04-10T22:49:22.282Z,5.30
2019-04-10T22:51:50.017Z,5.57
2019-04-10T22:54:17.951Z,5.07
2019-04-10T22:56:45.708Z,5.23
2019-04-10T22:59:13.626Z,5.07
2019-04-10T23:01:41.703Z,5.50
2019-04-10T23:04:10.086Z,4.90
2019-04-10T23:06:38.102Z,5.67
2019-04-10T23:09:08.482Z,4.83
2019-04-10T23:11:41.844Z,5.40
2019-04-10T23:14:06.799Z,4.57
2019-04-10T23:16:35.737Z,5.33
2019-04-10T23:19:22.968Z,4.77
2019-04-10T23:22:15.382Z,4.67
2019-04-10T23:24:43.491Z,5.17
2019-04-10T23:27:11.567Z,5.87
2019-04-10T23:29:40.208Z,5.47
2019-04-10T23:32:08.134Z,4.97
2019-04-10T23:34:36.774Z,4.70
2019-04-10T23:37:04.821Z,5.67
2019-04-10T23:39:32.597Z,5.37
2019-04-10T23:42:01.143Z,4.90
2019-04-10T23:44:29.199Z,5.27
2019-04-10T23:46:57.843Z,5.23
2019-04-10T23:49:25.673Z,5.10
2019-04-10T23:51:53.689Z,4.90
2019-04-10T23:54:21.576Z,4.97
2019-04-10T23:57:10.010Z,5.67
2019-04-10T23:59:39.107Z,5.17
